sensor_id;sensor_type;location;lat;lon;timestamp;P1;durP1;ratioP1;P2;durP2;ratioP2
45322;SDS011;31382;50.200;8.674;2024-01-30T00:04:57;23.90;;;10.43;;
45322;SDS011;31382;50.200;8.674;2024-01-30T00:09:59;24.13;;;12.25;;
45322;SDS011;31382;50.200;8.674;2024-01-30T00:15:01;21.88;;;10.98;;
45322;SDS011;31382;50.200;8.674;2024-01-30T00:20:03;22.45;;;11.60;;
45322;SDS011;31382;50.200;8.674;2024-01-30T00:25:08;20.08;;;11.27;;
45322;SDS011;31382;50.200;8.674;2024-01-30T00:30:10;23.23;;;11.55;;
45322;SDS011;31382;50.200;8.674;2024-01-30T00:35:12;21.75;;;12.15;;
45322;SDS011;31382;50.200;8.674;2024-01-30T00:40:14;24.40;;;11.27;;
45322;SDS011;31382;50.200;8.674;2024-01-30T00:45:20;28.88;;;13.13;;
45322;SDS011;31382;50.200;8.674;2024-01-30T00:50:21;24.15;;;12.07;;
45322;SDS011;31382;50.200;8.674;2024-01-30T00:55:23;25.45;;;11.70;;
45322;SDS011;31382;50.200;8.674;2024-01-30T01:00:24;23.50;;;10.85;;
45322;SDS011;31382;50.200;8.674;2024-01-30T01:05:30;26.80;;;11.70;;
45322;SDS011;31382;50.200;8.674;2024-01-30T01:10:31;25.58;;;12.00;;
45322;SDS011;31382;50.200;8.674;2024-01-30T01:15:33;25.20;;;11.52;;
45322;SDS011;31382;50.200;8.674;2024-01-30T01:20:34;22.35;;;11.15;;
45322;SDS011;31382;50.200;8.674;2024-01-30T01:25:36;23.33;;;10.93;;
45322;SDS011;31382;50.200;8.674;2024-01-30T01:30:37;22.88;;;10.73;;
45322;SDS011;31382;50.200;8.674;2024-01-30T01:35:39;19.77;;;9.50;;
45322;SDS011;31382;50.200;8.674;2024-01-30T01:40:41;20.15;;;10.57;;
45322;SDS011;31382;50.200;8.674;2024-01-30T01:45:42;19.83;;;10.20;;
45322;SDS011;31382;50.200;8.674;2024-01-30T01:50:44;19.02;;;10.02;;
45322;SDS011;31382;50.200;8.674;2024-01-30T01:55:46;20.55;;;10.40;;
45322;SDS011;31382;50.200;8.674;2024-01-30T02:00:49;29.77;;;13.00;;
45322;SDS011;31382;50.200;8.674;2024-01-30T02:05:52;27.83;;;14.15;;
45322;SDS011;31382;50.200;8.674;2024-01-30T02:10:55;24.67;;;12.35;;
45322;SDS011;31382;50.200;8.674;2024-01-30T02:15:57;21.42;;;10.68;;
45322;SDS011;31382;50.200;8.674;2024-01-30T02:20:58;20.88;;;10.10;;
45322;SDS011;31382;50.200;8.674;2024-01-30T02:26:03;20.08;;;9.45;;
45322;SDS011;31382;50.200;8.674;2024-01-30T02:31:04;17.70;;;8.10;;
45322;SDS011;31382;50.200;8.674;2024-01-30T02:36:06;17.63;;;8.57;;
45322;SDS011;31382;50.200;8.674;2024-01-30T02:41:08;19.45;;;8.98;;
45322;SDS011;31382;50.200;8.674;2024-01-30T02:46:09;18.48;;;8.82;;
45322;SDS011;31382;50.200;8.674;2024-01-30T02:51:11;19.88;;;8.55;;
45322;SDS011;31382;50.200;8.674;2024-01-30T02:56:13;21.17;;;8.30;;
45322;SDS011;31382;50.200;8.674;2024-01-30T03:01:14;21.17;;;9.32;;
45322;SDS011;31382;50.200;8.674;2024-01-30T03:06:16;19.75;;;8.70;;
45322;SDS011;31382;50.200;8.674;2024-01-30T03:11:18;16.40;;;8.27;;
45322;SDS011;31382;50.200;8.674;2024-01-30T03:16:20;19.33;;;9.30;;
45322;SDS011;31382;50.200;8.674;2024-01-30T03:21:22;17.15;;;9.07;;
45322;SDS011;31382;50.200;8.674;2024-01-30T03:26:23;18.02;;;9.35;;
45322;SDS011;31382;50.200;8.674;2024-01-30T03:31:25;17.13;;;8.43;;
45322;SDS011;31382;50.200;8.674;2024-01-30T03:36:27;18.35;;;9.05;;
45322;SDS011;31382;50.200;8.674;2024-01-30T03:41:29;22.08;;;8.13;;
45322;SDS011;31382;50.200;8.674;2024-01-30T03:46:31;21.15;;;8.88;;
45322;SDS011;31382;50.200;8.674;2024-01-30T03:51:32;15.48;;;7.72;;
45322;SDS011;31382;50.200;8.674;2024-01-30T03:56:34;16.35;;;9.18;;
45322;SDS011;31382;50.200;8.674;2024-01-30T04:01:35;20.52;;;9.68;;
45322;SDS011;31382;50.200;8.674;2024-01-30T04:06:37;20.00;;;9.20;;
45322;SDS011;31382;50.200;8.674;2024-01-30T04:11:39;22.55;;;9.05;;
45322;SDS011;31382;50.200;8.674;2024-01-30T04:16:41;17.40;;;8.93;;
45322;SDS011;31382;50.200;8.674;2024-01-30T04:21:42;20.58;;;8.75;;
45322;SDS011;31382;50.200;8.674;2024-01-30T04:26:43;17.83;;;8.48;;
45322;SDS011;31382;50.200;8.674;2024-01-30T04:31:45;17.67;;;7.97;;
45322;SDS011;31382;50.200;8.674;2024-01-30T04:36:46;18.15;;;9.10;;
45322;SDS011;31382;50.200;8.674;2024-01-30T04:41:48;17.50;;;7.95;;
45322;SDS011;31382;50.200;8.674;2024-01-30T04:46:49;15.27;;;7.22;;
45322;SDS011;31382;50.200;8.674;2024-01-30T04:51:51;19.77;;;8.77;;
45322;SDS011;31382;50.200;8.674;2024-01-30T04:56:52;20.05;;;7.75;;
45322;SDS011;31382;50.200;8.674;2024-01-30T05:01:54;17.63;;;7.97;;
45322;SDS011;31382;50.200;8.674;2024-01-30T05:06:57;19.85;;;9.40;;
45322;SDS011;31382;50.200;8.674;2024-01-30T05:11:59;16.83;;;8.63;;
45322;SDS011;31382;50.200;8.674;2024-01-30T05:17:00;19.63;;;10.05;;
45322;SDS011;31382;50.200;8.674;2024-01-30T05:22:04;18.33;;;9.15;;
45322;SDS011;31382;50.200;8.674;2024-01-30T05:27:05;20.67;;;9.82;;
45322;SDS011;31382;50.200;8.674;2024-01-30T05:32:07;17.40;;;8.98;;
45322;SDS011;31382;50.200;8.674;2024-01-30T05:37:08;18.85;;;9.45;;
45322;SDS011;31382;50.200;8.674;2024-01-30T05:42:10;18.75;;;10.05;;
45322;SDS011;31382;50.200;8.674;2024-01-30T05:47:11;23.27;;;9.50;;
45322;SDS011;31382;50.200;8.674;2024-01-30T05:52:13;17.83;;;9.57;;
45322;SDS011;31382;50.200;8.674;2024-01-30T05:57:16;20.50;;;10.02;;
45322;SDS011;31382;50.200;8.674;2024-01-30T06:02:17;18.42;;;10.43;;
45322;SDS011;31382;50.200;8.674;2024-01-30T06:07:19;20.98;;;10.40;;
45322;SDS011;31382;50.200;8.674;2024-01-30T06:12:20;16.42;;;9.13;;
45322;SDS011;31382;50.200;8.674;2024-01-30T06:17:22;21.48;;;10.63;;
45322;SDS011;31382;50.200;8.674;2024-01-30T06:22:24;41.13;;;17.80;;
45322;SDS011;31382;50.200;8.674;2024-01-30T06:27:26;25.20;;;13.10;;
45322;SDS011;31382;50.200;8.674;2024-01-30T06:32:27;28.83;;;12.38;;
45322;SDS011;31382;50.200;8.674;2024-01-30T06:37:30;25.80;;;11.65;;
45322;SDS011;31382;50.200;8.674;2024-01-30T06:42:31;21.33;;;10.65;;
45322;SDS011;31382;50.200;8.674;2024-01-30T06:47:33;20.25;;;10.73;;
45322;SDS011;31382;50.200;8.674;2024-01-30T06:52:34;39.80;;;17.40;;
45322;SDS011;31382;50.200;8.674;2024-01-30T06:57:36;35.78;;;14.93;;
45322;SDS011;31382;50.200;8.674;2024-01-30T07:02:37;28.50;;;14.98;;
45322;SDS011;31382;50.200;8.674;2024-01-30T07:07:39;27.40;;;12.10;;
45322;SDS011;31382;50.200;8.674;2024-01-30T07:12:40;25.48;;;12.25;;
45322;SDS011;31382;50.200;8.674;2024-01-30T07:17:42;28.45;;;14.23;;
45322;SDS011;31382;50.200;8.674;2024-01-30T07:22:43;28.38;;;12.70;;
45322;SDS011;31382;50.200;8.674;2024-01-30T07:27:45;24.05;;;12.10;;
45322;SDS011;31382;50.200;8.674;2024-01-30T07:32:46;20.88;;;9.63;;
45322;SDS011;31382;50.200;8.674;2024-01-30T07:37:48;24.02;;;12.48;;
45322;SDS011;31382;50.200;8.674;2024-01-30T07:42:49;21.67;;;11.65;;
45322;SDS011;31382;50.200;8.674;2024-01-30T07:47:51;22.10;;;12.15;;
45322;SDS011;31382;50.200;8.674;2024-01-30T07:52:53;24.25;;;13.13;;
45322;SDS011;31382;50.200;8.674;2024-01-30T07:57:56;32.15;;;13.70;;
45322;SDS011;31382;50.200;8.674;2024-01-30T08:02:58;30.48;;;14.18;;
45322;SDS011;31382;50.200;8.674;2024-01-30T08:08:00;33.28;;;15.18;;
45322;SDS011;31382;50.200;8.674;2024-01-30T08:13:02;29.35;;;14.00;;
45322;SDS011;31382;50.200;8.674;2024-01-30T08:18:03;29.33;;;14.88;;
45322;SDS011;31382;50.200;8.674;2024-01-30T08:23:07;33.20;;;14.68;;
45322;SDS011;31382;50.200;8.674;2024-01-30T08:28:09;31.00;;;14.15;;
45322;SDS011;31382;50.200;8.674;2024-01-30T08:33:11;25.67;;;14.07;;
45322;SDS011;31382;50.200;8.674;2024-01-30T08:38:13;28.23;;;15.15;;
45322;SDS011;31382;50.200;8.674;2024-01-30T08:43:14;28.65;;;15.63;;
45322;SDS011;31382;50.200;8.674;2024-01-30T08:48:16;30.80;;;15.90;;
45322;SDS011;31382;50.200;8.674;2024-01-30T08:53:19;29.83;;;15.38;;
45322;SDS011;31382;50.200;8.674;2024-01-30T08:58:20;33.22;;;14.90;;
45322;SDS011;31382;50.200;8.674;2024-01-30T09:03:22;28.13;;;14.85;;
45322;SDS011;31382;50.200;8.674;2024-01-30T09:08:23;29.73;;;14.80;;
45322;SDS011;31382;50.200;8.674;2024-01-30T09:13:25;28.83;;;15.25;;
45322;SDS011;31382;50.200;8.674;2024-01-30T09:18:27;29.58;;;14.50;;
45322;SDS011;31382;50.200;8.674;2024-01-30T09:23:28;28.70;;;16.02;;
45322;SDS011;31382;50.200;8.674;2024-01-30T09:28:30;26.17;;;13.43;;
45322;SDS011;31382;50.200;8.674;2024-01-30T09:33:31;24.20;;;12.80;;
45322;SDS011;31382;50.200;8.674;2024-01-30T09:38:33;24.88;;;14.10;;
45322;SDS011;31382;50.200;8.674;2024-01-30T09:43:34;22.30;;;13.68;;
45322;SDS011;31382;50.200;8.674;2024-01-30T09:48:36;22.35;;;13.25;;
45322;SDS011;31382;50.200;8.674;2024-01-30T09:53:38;24.65;;;12.25;;
45322;SDS011;31382;50.200;8.674;2024-01-30T09:58:40;21.25;;;12.70;;
45322;SDS011;31382;50.200;8.674;2024-01-30T10:03:43;24.30;;;13.20;;
45322;SDS011;31382;50.200;8.674;2024-01-30T10:08:44;22.23;;;12.68;;
45322;SDS011;31382;50.200;8.674;2024-01-30T10:13:46;22.55;;;13.10;;
45322;SDS011;31382;50.200;8.674;2024-01-30T10:18:47;19.65;;;12.95;;
45322;SDS011;31382;50.200;8.674;2024-01-30T10:23:49;22.30;;;11.73;;
45322;SDS011;31382;50.200;8.674;2024-01-30T10:28:51;20.67;;;12.70;;
45322;SDS011;31382;50.200;8.674;2024-01-30T10:33:52;20.88;;;12.32;;
45322;SDS011;31382;50.200;8.674;2024-01-30T10:39:08;22.85;;;12.73;;
45322;SDS011;31382;50.200;8.674;2024-01-30T10:44:10;18.48;;;11.30;;
45322;SDS011;31382;50.200;8.674;2024-01-30T10:49:12;27.15;;;11.82;;
45322;SDS011;31382;50.200;8.674;2024-01-30T10:54:16;24.70;;;13.45;;
45322;SDS011;31382;50.200;8.674;2024-01-30T10:59:19;19.60;;;12.38;;
45322;SDS011;31382;50.200;8.674;2024-01-30T11:04:24;20.70;;;12.20;;
45322;SDS011;31382;50.200;8.674;2024-01-30T11:09:28;20.83;;;12.88;;
45322;SDS011;31382;50.200;8.674;2024-01-30T11:14:31;17.58;;;11.95;;
45322;SDS011;31382;50.200;8.674;2024-01-30T11:19:33;20.95;;;13.20;;
45322;SDS011;31382;50.200;8.674;2024-01-30T11:24:41;22.90;;;12.15;;
45322;SDS011;31382;50.200;8.674;2024-01-30T11:29:49;18.20;;;12.27;;
45322;SDS011;31382;50.200;8.674;2024-01-30T11:34:51;19.20;;;11.63;;
45322;SDS011;31382;50.200;8.674;2024-01-30T11:39:54;20.17;;;11.73;;
45322;SDS011;31382;50.200;8.674;2024-01-30T11:44:56;20.88;;;12.30;;
45322;SDS011;31382;50.200;8.674;2024-01-30T11:49:57;22.40;;;12.00;;
45322;SDS011;31382;50.200;8.674;2024-01-30T11:55:01;24.02;;;12.10;;
45322;SDS011;31382;50.200;8.674;2024-01-30T12:00:04;18.90;;;11.63;;
45322;SDS011;31382;50.200;8.674;2024-01-30T12:05:11;15.25;;;10.30;;
45322;SDS011;31382;50.200;8.674;2024-01-30T12:10:14;20.13;;;11.77;;
45322;SDS011;31382;50.200;8.674;2024-01-30T12:15:18;21.23;;;12.30;;
45322;SDS011;31382;50.200;8.674;2024-01-30T12:20:23;19.73;;;11.82;;
45322;SDS011;31382;50.200;8.674;2024-01-30T12:25:25;20.73;;;11.52;;
45322;SDS011;31382;50.200;8.674;2024-01-30T12:30:29;17.63;;;10.90;;
45322;SDS011;31382;50.200;8.674;2024-01-30T12:35:31;16.85;;;10.30;;
45322;SDS011;31382;50.200;8.674;2024-01-30T12:40:34;25.58;;;11.05;;
45322;SDS011;31382;50.200;8.674;2024-01-30T12:45:37;19.73;;;10.75;;
45322;SDS011;31382;50.200;8.674;2024-01-30T12:50:39;22.23;;;11.20;;
45322;SDS011;31382;50.200;8.674;2024-01-30T12:55:40;20.55;;;11.07;;
45322;SDS011;31382;50.200;8.674;2024-01-30T13:00:42;18.70;;;10.90;;
45322;SDS011;31382;50.200;8.674;2024-01-30T13:05:44;15.38;;;9.45;;
45322;SDS011;31382;50.200;8.674;2024-01-30T13:10:46;20.08;;;10.18;;
45322;SDS011;31382;50.200;8.674;2024-01-30T13:15:50;16.33;;;10.07;;
45322;SDS011;31382;50.200;8.674;2024-01-30T13:20:52;19.85;;;10.10;;
45322;SDS011;31382;50.200;8.674;2024-01-30T13:25:53;17.13;;;9.73;;
45322;SDS011;31382;50.200;8.674;2024-01-30T13:30:59;17.25;;;10.35;;
45322;SDS011;31382;50.200;8.674;2024-01-30T13:36:01;14.45;;;9.98;;
45322;SDS011;31382;50.200;8.674;2024-01-30T13:41:02;18.15;;;9.60;;
45322;SDS011;31382;50.200;8.674;2024-01-30T13:46:04;17.02;;;9.30;;
45322;SDS011;31382;50.200;8.674;2024-01-30T13:51:06;16.67;;;9.90;;
45322;SDS011;31382;50.200;8.674;2024-01-30T13:56:08;16.50;;;9.55;;
45322;SDS011;31382;50.200;8.674;2024-01-30T14:01:09;20.95;;;10.05;;
45322;SDS011;31382;50.200;8.674;2024-01-30T14:06:11;15.27;;;9.45;;
45322;SDS011;31382;50.200;8.674;2024-01-30T14:11:13;17.88;;;9.63;;
45322;SDS011;31382;50.200;8.674;2024-01-30T14:16:15;15.98;;;8.65;;
45322;SDS011;31382;50.200;8.674;2024-01-30T14:21:17;18.77;;;10.02;;
45322;SDS011;31382;50.200;8.674;2024-01-30T14:26:18;20.35;;;10.27;;
45322;SDS011;31382;50.200;8.674;2024-01-30T14:31:20;15.23;;;9.55;;
45322;SDS011;31382;50.200;8.674;2024-01-30T14:36:22;15.90;;;9.18;;
45322;SDS011;31382;50.200;8.674;2024-01-30T14:41:29;15.18;;;9.75;;
45322;SDS011;31382;50.200;8.674;2024-01-30T14:46:30;19.08;;;10.45;;
45322;SDS011;31382;50.200;8.674;2024-01-30T14:51:32;17.23;;;10.10;;
45322;SDS011;31382;50.200;8.674;2024-01-30T14:56:34;16.30;;;9.73;;
45322;SDS011;31382;50.200;8.674;2024-01-30T15:01:35;20.25;;;10.30;;
45322;SDS011;31382;50.200;8.674;2024-01-30T15:06:37;16.45;;;10.23;;
45322;SDS011;31382;50.200;8.674;2024-01-30T15:11:39;16.65;;;9.98;;
45322;SDS011;31382;50.200;8.674;2024-01-30T15:16:41;20.23;;;10.52;;
45322;SDS011;31382;50.200;8.674;2024-01-30T15:21:42;16.02;;;10.52;;
45322;SDS011;31382;50.200;8.674;2024-01-30T15:26:43;19.45;;;10.90;;
45322;SDS011;31382;50.200;8.674;2024-01-30T15:31:45;18.58;;;10.40;;
45322;SDS011;31382;50.200;8.674;2024-01-30T15:36:46;18.65;;;10.77;;
45322;SDS011;31382;50.200;8.674;2024-01-30T15:41:48;17.33;;;10.98;;
45322;SDS011;31382;50.200;8.674;2024-01-30T15:46:50;22.83;;;10.63;;
45322;SDS011;31382;50.200;8.674;2024-01-30T15:51:51;17.88;;;10.45;;
45322;SDS011;31382;50.200;8.674;2024-01-30T15:56:53;15.82;;;9.82;;
45322;SDS011;31382;50.200;8.674;2024-01-30T16:01:54;20.05;;;12.05;;
45322;SDS011;31382;50.200;8.674;2024-01-30T16:06:56;20.90;;;11.82;;
45322;SDS011;31382;50.200;8.674;2024-01-30T16:11:58;18.98;;;12.18;;
45322;SDS011;31382;50.200;8.674;2024-01-30T16:17:00;26.52;;;12.90;;
45322;SDS011;31382;50.200;8.674;2024-01-30T16:22:01;20.00;;;12.27;;
45322;SDS011;31382;50.200;8.674;2024-01-30T16:27:03;22.27;;;12.30;;
45322;SDS011;31382;50.200;8.674;2024-01-30T16:32:05;24.88;;;12.35;;
45322;SDS011;31382;50.200;8.674;2024-01-30T16:37:07;19.60;;;12.00;;
45322;SDS011;31382;50.200;8.674;2024-01-30T16:42:08;22.58;;;13.70;;
45322;SDS011;31382;50.200;8.674;2024-01-30T16:47:10;25.25;;;14.52;;
45322;SDS011;31382;50.200;8.674;2024-01-30T16:52:12;25.35;;;15.15;;
45322;SDS011;31382;50.200;8.674;2024-01-30T16:57:13;21.98;;;12.88;;
45322;SDS011;31382;50.200;8.674;2024-01-30T17:02:15;25.58;;;12.80;;
45322;SDS011;31382;50.200;8.674;2024-01-30T17:07:16;23.10;;;13.48;;
45322;SDS011;31382;50.200;8.674;2024-01-30T17:12:18;19.17;;;11.48;;
45322;SDS011;31382;50.200;8.674;2024-01-30T17:17:20;20.25;;;11.48;;
45322;SDS011;31382;50.200;8.674;2024-01-30T17:22:21;22.40;;;11.45;;
45322;SDS011;31382;50.200;8.674;2024-01-30T17:27:23;20.42;;;13.43;;
45322;SDS011;31382;50.200;8.674;2024-01-30T17:32:25;20.80;;;12.25;;
45322;SDS011;31382;50.200;8.674;2024-01-30T17:37:27;24.10;;;12.10;;
45322;SDS011;31382;50.200;8.674;2024-01-30T17:42:28;22.67;;;12.13;;
45322;SDS011;31382;50.200;8.674;2024-01-30T17:47:30;29.10;;;12.43;;
45322;SDS011;31382;50.200;8.674;2024-01-30T17:52:32;21.17;;;10.63;;
45322;SDS011;31382;50.200;8.674;2024-01-30T17:57:34;17.48;;;9.75;;
45322;SDS011;31382;50.200;8.674;2024-01-30T18:02:35;15.88;;;9.82;;
45322;SDS011;31382;50.200;8.674;2024-01-30T18:07:37;15.50;;;9.82;;
45322;SDS011;31382;50.200;8.674;2024-01-30T18:12:39;18.15;;;9.30;;
45322;SDS011;31382;50.200;8.674;2024-01-30T18:17:42;23.73;;;11.48;;
45322;SDS011;31382;50.200;8.674;2024-01-30T18:22:44;15.70;;;9.27;;
45322;SDS011;31382;50.200;8.674;2024-01-30T18:27:47;16.15;;;9.95;;
45322;SDS011;31382;50.200;8.674;2024-01-30T18:32:48;18.60;;;10.00;;
45322;SDS011;31382;50.200;8.674;2024-01-30T18:37:50;24.67;;;12.00;;
45322;SDS011;31382;50.200;8.674;2024-01-30T18:42:52;17.77;;;10.95;;
45322;SDS011;31382;50.200;8.674;2024-01-30T18:47:53;17.48;;;9.80;;
45322;SDS011;31382;50.200;8.674;2024-01-30T18:52:55;16.25;;;9.70;;
45322;SDS011;31382;50.200;8.674;2024-01-30T18:57:57;20.00;;;9.80;;
45322;SDS011;31382;50.200;8.674;2024-01-30T19:02:59;19.55;;;10.07;;
45322;SDS011;31382;50.200;8.674;2024-01-30T19:08:00;23.30;;;12.10;;
45322;SDS011;31382;50.200;8.674;2024-01-30T19:13:02;20.35;;;11.45;;
45322;SDS011;31382;50.200;8.674;2024-01-30T19:18:06;22.50;;;11.82;;
45322;SDS011;31382;50.200;8.674;2024-01-30T19:23:08;22.70;;;11.20;;
45322;SDS011;31382;50.200;8.674;2024-01-30T19:28:09;21.17;;;10.65;;
45322;SDS011;31382;50.200;8.674;2024-01-30T19:33:12;19.80;;;11.48;;
45322;SDS011;31382;50.200;8.674;2024-01-30T19:38:13;19.75;;;10.98;;
45322;SDS011;31382;50.200;8.674;2024-01-30T19:43:15;18.75;;;12.05;;
45322;SDS011;31382;50.200;8.674;2024-01-30T19:48:17;20.77;;;11.30;;
45322;SDS011;31382;50.200;8.674;2024-01-30T19:53:18;18.33;;;11.05;;
45322;SDS011;31382;50.200;8.674;2024-01-30T19:58:21;17.80;;;11.18;;
45322;SDS011;31382;50.200;8.674;2024-01-30T20:03:23;22.33;;;11.35;;
45322;SDS011;31382;50.200;8.674;2024-01-30T20:08:24;21.13;;;12.25;;
45322;SDS011;31382;50.200;8.674;2024-01-30T20:13:26;20.67;;;11.55;;
45322;SDS011;31382;50.200;8.674;2024-01-30T20:18:29;28.42;;;12.90;;
45322;SDS011;31382;50.200;8.674;2024-01-30T20:23:33;24.48;;;13.48;;
45322;SDS011;31382;50.200;8.674;2024-01-30T20:28:34;23.80;;;12.43;;
45322;SDS011;31382;50.200;8.674;2024-01-30T20:33:36;22.15;;;12.60;;
45322;SDS011;31382;50.200;8.674;2024-01-30T20:38:38;23.95;;;12.90;;
45322;SDS011;31382;50.200;8.674;2024-01-30T20:43:41;27.92;;;13.88;;
45322;SDS011;31382;50.200;8.674;2024-01-30T20:48:43;20.02;;;12.25;;
45322;SDS011;31382;50.200;8.674;2024-01-30T20:53:47;22.70;;;12.88;;
45322;SDS011;31382;50.200;8.674;2024-01-30T20:58:48;22.73;;;12.30;;
45322;SDS011;31382;50.200;8.674;2024-01-30T21:03:50;19.48;;;11.43;;
45322;SDS011;31382;50.200;8.674;2024-01-30T21:08:51;22.65;;;11.82;;
45322;SDS011;31382;50.200;8.674;2024-01-30T21:13:53;18.73;;;11.57;;
45322;SDS011;31382;50.200;8.674;2024-01-30T21:18:54;22.85;;;11.90;;
45322;SDS011;31382;50.200;8.674;2024-01-30T21:23:56;19.92;;;11.60;;
45322;SDS011;31382;50.200;8.674;2024-01-30T21:28:57;21.60;;;12.30;;
45322;SDS011;31382;50.200;8.674;2024-01-30T21:33:59;24.88;;;12.15;;
45322;SDS011;31382;50.200;8.674;2024-01-30T21:39:01;23.52;;;12.32;;
45322;SDS011;31382;50.200;8.674;2024-01-30T21:44:03;19.02;;;11.90;;
45322;SDS011;31382;50.200;8.674;2024-01-30T21:49:05;20.35;;;11.52;;
45322;SDS011;31382;50.200;8.674;2024-01-30T21:54:08;19.05;;;12.60;;
45322;SDS011;31382;50.200;8.674;2024-01-30T21:59:10;20.33;;;12.80;;
45322;SDS011;31382;50.200;8.674;2024-01-30T22:04:11;18.85;;;11.32;;
45322;SDS011;31382;50.200;8.674;2024-01-30T22:09:13;21.55;;;11.55;;
45322;SDS011;31382;50.200;8.674;2024-01-30T22:14:15;22.83;;;11.77;;
45322;SDS011;31382;50.200;8.674;2024-01-30T22:19:16;30.15;;;12.07;;
45322;SDS011;31382;50.200;8.674;2024-01-30T22:24:18;23.52;;;12.15;;
45322;SDS011;31382;50.200;8.674;2024-01-30T22:29:23;22.27;;;12.70;;
45322;SDS011;31382;50.200;8.674;2024-01-30T22:34:24;25.55;;;12.73;;
45322;SDS011;31382;50.200;8.674;2024-01-30T22:39:27;20.10;;;12.02;;
45322;SDS011;31382;50.200;8.674;2024-01-30T22:44:29;31.05;;;13.23;;
45322;SDS011;31382;50.200;8.674;2024-01-30T22:49:31;16.17;;;8.75;;
45322;SDS011;31382;50.200;8.674;2024-01-30T22:54:32;13.95;;;7.45;;
45322;SDS011;31382;50.200;8.674;2024-01-30T22:59:34;13.35;;;7.30;;
45322;SDS011;31382;50.200;8.674;2024-01-30T23:04:36;14.95;;;6.63;;
45322;SDS011;31382;50.200;8.674;2024-01-30T23:09:37;25.50;;;8.60;;
45322;SDS011;31382;50.200;8.674;2024-01-30T23:14:43;17.65;;;6.78;;
45322;SDS011;31382;50.200;8.674;2024-01-30T23:19:46;13.73;;;7.28;;
45322;SDS011;31382;50.200;8.674;2024-01-30T23:24:47;11.77;;;7.68;;
45322;SDS011;31382;50.200;8.674;2024-01-30T23:29:49;14.55;;;6.82;;
45322;SDS011;31382;50.200;8.674;2024-01-30T23:34:53;13.77;;;8.20;;
45322;SDS011;31382;50.200;8.674;2024-01-30T23:39:58;17.80;;;9.85;;
45322;SDS011;31382;50.200;8.674;2024-01-30T23:44:59;18.50;;;9.15;;
45322;SDS011;31382;50.200;8.674;2024-01-30T23:50:01;16.92;;;9.30;;
45322;SDS011;31382;50.200;8.674;2024-01-30T23:55:04;14.48;;;8.70;;
